createdAt,value
2022-10-15T00:00:05.833Z,101047.48
2022-10-15T00:01:11.556Z,101057.05
2022-10-15T00:02:13.722Z,101052.80
2022-10-15T00:03:16.529Z,101051.00
2022-10-15T00:04:18.555Z,101053.64
2022-10-15T00:05:21.938Z,101052.77
2022-10-15T00:06:23.996Z,101048.38
2022-10-15T00:07:28.307Z,101050.16
2022-10-15T00:08:30.616Z,101051.91
2022-10-15T00:09:32.491Z,101053.64
2022-10-15T00:10:35.333Z,101052.80
2022-10-15T00:11:37.256Z,101049.34
2022-10-15T00:12:40.172Z,101051.93
2022-10-15T00:13:42.601Z,101051.14
2022-10-15T00:14:44.488Z,101051.04
2022-10-15T00:15:46.383Z,101051.25
2022-10-15T00:16:49.367Z,101059.83
2022-10-15T00:17:51.822Z,101049.27
2022-10-15T00:18:58.795Z,101057.05
2022-10-15T00:20:01.747Z,101049.17
2022-10-15T00:21:09.007Z,101046.55
2022-10-15T00:22:10.941Z,101050.05
2022-10-15T00:23:12.851Z,101051.73
2022-10-15T00:24:15.108Z,101048.25
2022-10-15T00:25:17.292Z,101047.37
2022-10-15T00:26:22.294Z,101044.77
2022-10-15T00:27:24.379Z,101041.27
2022-10-15T00:28:29.485Z,101040.37
2022-10-15T00:29:30.168Z,101045.63
2022-10-15T00:30:32.541Z,101034.23
2022-10-15T00:31:35.080Z,101034.20
2022-10-15T00:32:36.992Z,101030.75
2022-10-15T00:33:39.308Z,101031.62
2022-10-15T00:34:41.270Z,101039.45
2022-10-15T00:35:43.144Z,101042.98
2022-10-15T00:36:45.472Z,101035.97
2022-10-15T00:37:47.363Z,101029.87
2022-10-15T00:38:50.390Z,101040.27
2022-10-15T00:39:52.674Z,101041.99
2022-10-15T00:40:55.250Z,101040.28
2022-10-15T00:41:57.355Z,101048.05
2022-10-15T00:42:59.345Z,101043.70
2022-10-15T00:45:15.820Z,101036.63
2022-10-15T00:46:27.782Z,101043.72
2022-10-15T00:47:45.786Z,101046.36
2022-10-15T00:48:50.744Z,101035.88
2022-10-15T00:49:56.482Z,101035.88
2022-10-15T00:51:01.668Z,101039.28
2022-10-15T00:52:07.544Z,101039.28
2022-10-15T00:53:09.865Z,101037.52
2022-10-15T00:54:12.638Z,101042.74
2022-10-15T00:55:24.084Z,101041.94
2022-10-15T00:56:28.977Z,101034.13
2022-10-15T00:57:32.490Z,101040.16
2022-10-15T00:58:35.674Z,101033.23
2022-10-15T00:59:41.668Z,101027.20
2022-10-15T01:00:43.961Z,101040.20
2022-10-15T01:01:47.408Z,101042.79
2022-10-15T01:02:49.557Z,101037.54
2022-10-15T01:03:54.621Z,101041.06
2022-10-15T01:04:56.675Z,101046.28
2022-10-15T01:05:58.888Z,101043.71
2022-10-15T01:07:00.985Z,101036.73
2022-10-15T01:08:02.845Z,101041.97
2022-10-15T01:09:05.266Z,101041.98
2022-10-15T01:10:10.513Z,101035.83
2022-10-15T01:11:18.957Z,101037.57
2022-10-15T01:12:50.601Z,101036.70
2022-10-15T01:14:20.628Z,101035.84
2022-10-15T01:15:44.729Z,100996.02
2022-10-15T01:16:56.699Z,101039.38
2022-10-15T01:18:11.599Z,101026.45
2022-10-15T01:19:29.550Z,101034.20
2022-10-15T01:20:53.230Z,101042.23
2022-10-15T01:22:16.739Z,101034.34
2022-10-15T01:23:31.221Z,101034.34
2022-10-15T01:24:45.743Z,101046.42
2022-10-15T01:26:15.979Z,101042.93
2022-10-15T01:27:36.464Z,101042.07
2022-10-15T01:28:48.089Z,101037.73
2022-10-15T01:30:21.811Z,101040.34
2022-10-15T01:31:39.676Z,101042.03
2022-10-15T01:32:45.685Z,101035.86
2022-10-15T01:34:00.469Z,101038.53
2022-10-15T01:35:12.091Z,101034.11
2022-10-15T01:37:41.390Z,101037.54
2022-10-15T01:38:59.550Z,101051.68
2022-10-15T01:40:08.505Z,101045.62
2022-10-15T01:41:14.205Z,101043.91
2022-10-15T01:42:19.982Z,101047.48
2022-10-15T01:43:50.099Z,101046.58
2022-10-15T01:44:55.777Z,101044.82
2022-10-15T01:46:01.463Z,101043.91
2022-10-15T01:47:07.211Z,101055.27
2022-10-15T01:48:11.539Z,101053.56
2022-10-15T01:49:17.222Z,101043.03
2022-10-15T01:50:23.078Z,101048.19
2022-10-15T01:51:27.277Z,101045.59
2022-10-15T01:52:33.138Z,101049.06
2022-10-15T01:53:36.567Z,101050.75
2022-10-15T01:54:39.584Z,101050.63
2022-10-15T01:55:44.730Z,101045.34
2022-10-15T01:56:49.382Z,101053.22
2022-10-15T01:57:53.707Z,101046.23
2022-10-15T01:58:56.837Z,101049.69
2022-10-15T01:59:59.952Z,101052.36
2022-10-15T02:01:02.428Z,101056.73
2022-10-15T02:02:04.656Z,101054.99
2022-10-15T02:03:06.541Z,101051.53
2022-10-15T02:04:24.157Z,101063.69
2022-10-15T02:05:35.650Z,101061.88
2022-10-15T02:06:41.482Z,101061.81
2022-10-15T02:08:04.083Z,101059.18
2022-10-15T02:09:15.934Z,101059.94
2022-10-15T02:10:38.562Z,101061.58
2022-10-15T02:12:56.039Z,101049.14
2022-10-15T02:14:07.564Z,101069.37
2022-10-15T02:15:17.417Z,101058.02
2022-10-15T02:16:47.156Z,101063.30
2022-10-15T02:18:08.337Z,101062.45
2022-10-15T02:19:31.042Z,101071.23
2022-10-15T02:20:39.738Z,101064.98
2022-10-15T02:22:00.489Z,101064.98
2022-10-15T02:23:06.186Z,101061.47
2022-10-15T02:24:21.140Z,101060.55
2022-10-15T02:25:25.106Z,101055.31
2022-10-15T02:26:29.750Z,101057.05
2022-10-15T02:27:33.474Z,101060.56
2022-10-15T02:28:37.911Z,101064.88
2022-10-15T02:29:42.193Z,101069.16
2022-10-15T02:30:47.699Z,101066.49
2022-10-15T02:31:51.927Z,101062.92
2022-10-15T02:32:57.358Z,101062.08
2022-10-15T02:34:03.070Z,101069.08
2022-10-15T02:35:10.765Z,101055.98
2022-10-15T02:36:14.412Z,101055.98
2022-10-15T02:37:22.997Z,101060.34
2022-10-15T02:38:28.657Z,101061.26
2022-10-15T02:39:31.058Z,101056.07
2022-10-15T02:40:35.108Z,101066.44
2022-10-15T02:41:38.514Z,101065.66
2022-10-15T02:42:40.448Z,101063.86
2022-10-15T02:43:42.580Z,101063.00
2022-10-15T02:44:45.192Z,101066.53
2022-10-15T02:45:48.881Z,101075.20
2022-10-15T02:46:50.888Z,101069.97
2022-10-15T02:47:52.759Z,101069.11
2022-10-15T02:48:54.768Z,101066.49
2022-10-15T02:49:56.765Z,101070.92
2022-10-15T02:50:58.760Z,101070.92
2022-10-15T02:52:00.653Z,101072.53
2022-10-15T02:53:03.453Z,101078.64
2022-10-15T02:54:06.400Z,101069.86
2022-10-15T02:55:09.188Z,101075.89
2022-10-15T02:56:11.867Z,101070.63
2022-10-15T02:57:13.740Z,101068.83
2022-10-15T02:58:15.829Z,101069.70
2022-10-15T02:59:17.977Z,101068.05
2022-10-15T03:00:20.223Z,101068.92
2022-10-15T03:01:22.475Z,101069.78
2022-10-15T03:02:24.585Z,101069.72
2022-10-15T03:03:26.543Z,101069.76
2022-10-15T03:04:28.833Z,101069.78
2022-10-15T03:05:31.080Z,101061.09
2022-10-15T03:06:33.321Z,101064.56
2022-10-15T03:07:35.641Z,101066.30
2022-10-15T03:08:37.528Z,101066.24
2022-10-15T03:09:39.462Z,101059.23
2022-10-15T03:10:41.781Z,101068.73
2022-10-15T03:11:44.485Z,101062.71
2022-10-15T03:12:46.483Z,101066.19
2022-10-15T03:13:48.520Z,101062.66
2022-10-15T03:14:50.612Z,101060.03
2022-10-15T03:15:52.953Z,101063.51
2022-10-15T03:16:55.580Z,101064.37
2022-10-15T03:17:57.842Z,101063.47
2022-10-15T03:18:59.837Z,101060.87
2022-10-15T03:20:01.865Z,101063.51
2022-10-15T03:21:04.360Z,101060.05
2022-10-15T03:22:06.687Z,101057.41
2022-10-15T03:23:08.730Z,101062.66
2022-10-15T03:24:10.631Z,101059.17
2022-10-15T03:25:13.246Z,101062.66
2022-10-15T03:26:16.133Z,101058.25
2022-10-15T03:27:18.214Z,101059.11
2022-10-15T03:28:22.019Z,101059.92
2022-10-15T03:29:24.139Z,101056.39
2022-10-15T03:30:26.114Z,101057.37
2022-10-15T03:31:27.984Z,101060.05
2022-10-15T03:32:32.997Z,101063.64
2022-10-15T03:33:34.005Z,101061.02
2022-10-15T03:34:36.475Z,101060.94
2022-10-15T03:35:39.133Z,101060.87
2022-10-15T03:36:41.139Z,101059.22
2022-10-15T03:37:43.191Z,101066.19
2022-10-15T03:38:45.066Z,101058.36
2022-10-15T03:39:46.943Z,101057.49
2022-10-15T03:40:48.923Z,101062.66
2022-10-15T03:41:53.915Z,101062.69
2022-10-15T03:42:56.255Z,101060.09
2022-10-15T03:44:02.922Z,101049.65
2022-10-15T03:45:05.828Z,101059.28
2022-10-15T03:46:07.954Z,101062.73
2022-10-15T03:47:09.908Z,101064.40
2022-10-15T03:48:11.910Z,101060.78
2022-10-15T03:49:13.800Z,101061.69
2022-10-15T03:50:16.484Z,101064.31
2022-10-15T03:51:22.698Z,101059.86
2022-10-15T03:52:23.013Z,101051.05
2022-10-15T03:53:25.426Z,101058.03
2022-10-15T03:54:27.306Z,101055.39
2022-10-15T03:55:29.197Z,101054.52
2022-10-15T03:56:31.190Z,101060.56
2022-10-15T03:57:33.468Z,101055.45
2022-10-15T03:58:35.845Z,101060.66
2022-10-15T03:59:37.779Z,101059.84
2022-10-15T04:00:44.432Z,101068.61
2022-10-15T04:01:46.613Z,101064.27
2022-10-15T04:02:48.612Z,101063.34
2022-10-15T04:03:53.292Z,101059.86
2022-10-15T04:04:55.199Z,101059.82
2022-10-15T04:05:59.817Z,101068.56
2022-10-15T04:07:01.027Z,101064.16
2022-10-15T04:08:03.754Z,101065.92
2022-10-15T04:09:05.827Z,101063.31
2022-10-15T04:10:08.835Z,101060.70
2022-10-15T04:11:10.715Z,101067.73
2022-10-15T04:12:13.215Z,101067.64
2022-10-15T04:13:15.143Z,101071.98
2022-10-15T04:14:17.085Z,101064.06
2022-10-15T04:15:18.944Z,101070.20
2022-10-15T04:16:21.044Z,101068.39
2022-10-15T04:17:22.936Z,101075.42
2022-10-15T04:18:24.927Z,101065.79
2022-10-15T04:19:27.180Z,101066.69
2022-10-15T04:20:29.165Z,101070.24
2022-10-15T04:21:31.350Z,101074.64
2022-10-15T04:22:33.438Z,101072.06
2022-10-15T04:23:35.424Z,101073.83
2022-10-15T04:24:37.341Z,101072.93
2022-10-15T04:25:39.722Z,101071.16
2022-10-15T04:26:41.957Z,101060.66
2022-10-15T04:27:44.047Z,101068.52
2022-10-15T04:28:47.923Z,101072.86
2022-10-15T04:29:50.098Z,101064.11
2022-10-15T04:32:14.467Z,101063.05
2022-10-15T04:33:16.474Z,101066.67
2022-10-15T04:34:18.548Z,101061.48
2022-10-15T04:35:21.674Z,101062.40
2022-10-15T04:36:23.883Z,101065.90
2022-10-15T04:37:25.947Z,101065.02
2022-10-15T04:38:28.777Z,101065.02
2022-10-15T04:39:30.787Z,101063.19
2022-10-15T04:40:32.764Z,101069.24
2022-10-15T04:41:34.998Z,101064.91
2022-10-15T04:42:37.842Z,101064.06
2022-10-15T04:43:39.764Z,101066.63
2022-10-15T04:44:41.758Z,101063.98
2022-10-15T04:45:43.650Z,101063.13
2022-10-15T04:46:45.846Z,101066.59
2022-10-15T04:47:47.726Z,101065.81
2022-10-15T04:48:49.902Z,101054.37
2022-10-15T04:49:51.861Z,101065.81
2022-10-15T04:50:54.227Z,101066.64
2022-10-15T04:51:56.135Z,101065.77
2022-10-15T04:52:59.135Z,101055.39
2022-10-15T04:54:07.575Z,101067.59
2022-10-15T04:55:09.817Z,101059.84
2022-10-15T04:56:15.195Z,101071.98
2022-10-15T04:57:17.216Z,101062.31
2022-10-15T04:58:19.104Z,101065.81
2022-10-15T04:59:21.006Z,101065.77
2022-10-15T05:00:22.999Z,101059.59
2022-10-15T05:01:24.874Z,101070.08
2022-10-15T05:02:26.855Z,101071.89
2022-10-15T05:03:30.141Z,101065.83
2022-10-15T05:04:32.104Z,101065.85
2022-10-15T05:05:34.123Z,101066.67
2022-10-15T05:06:36.090Z,101069.24
2022-10-15T05:07:38.001Z,101069.27
2022-10-15T05:08:40.003Z,101068.39
2022-10-15T05:09:46.181Z,101077.06
2022-10-15T05:10:45.985Z,101070.05
2022-10-15T05:11:48.090Z,101079.73
2022-10-15T05:12:51.567Z,101076.25
2022-10-15T05:13:57.910Z,101072.68
2022-10-15T05:14:59.941Z,101078.84
2022-10-15T05:16:17.396Z,101074.37
2022-10-15T05:17:19.476Z,101077.87
2022-10-15T05:18:21.514Z,101075.25
2022-10-15T05:19:23.395Z,101076.14
2022-10-15T05:20:25.445Z,101079.62
2022-10-15T05:21:28.705Z,101078.84
2022-10-15T05:22:30.762Z,101081.32
2022-10-15T05:23:32.955Z,101083.05
2022-10-15T05:24:34.847Z,101084.78
2022-10-15T05:25:36.960Z,101091.72
2022-10-15T05:26:39.306Z,101086.45
2022-10-15T05:27:41.187Z,101086.40
2022-10-15T05:28:43.315Z,101086.33
2022-10-15T05:29:45.679Z,101088.88
2022-10-15T05:30:47.859Z,101094.96
2022-10-15T05:31:51.203Z,101089.73
2022-10-15T05:32:55.113Z,101089.62
2022-10-15T05:34:03.482Z,101093.82
2022-10-15T05:35:06.934Z,101093.82
2022-10-15T05:36:21.826Z,101093.76
2022-10-15T05:37:23.900Z,101096.52
2022-10-15T05:38:26.186Z,101097.33
2022-10-15T05:39:28.064Z,101095.53
2022-10-15T05:40:30.289Z,101097.34
2022-10-15T05:41:32.248Z,101099.77
2022-10-15T05:42:34.291Z,101097.20
2022-10-15T05:43:40.316Z,101095.43
2022-10-15T05:44:40.368Z,101096.34
2022-10-15T05:45:42.433Z,101096.28
2022-10-15T05:46:44.530Z,101098.13
2022-10-15T05:47:46.401Z,101092.88
2022-10-15T05:48:50.970Z,101101.63
2022-10-15T05:49:52.912Z,101100.68
2022-10-15T05:51:01.057Z,101103.23
2022-10-15T05:52:03.478Z,101109.39
2022-10-15T05:53:05.647Z,101108.43
2022-10-15T05:54:07.547Z,101103.12
2022-10-15T05:55:09.413Z,101102.27
2022-10-15T05:56:13.063Z,101107.63
2022-10-15T05:57:14.956Z,101101.48
2022-10-15T05:58:17.002Z,101103.33
2022-10-15T05:59:19.009Z,101087.58
2022-10-15T06:00:20.994Z,101105.91
2022-10-15T06:01:23.067Z,101105.91
2022-10-15T06:02:25.383Z,101104.08
2022-10-15T06:03:28.531Z,101099.61
2022-10-15T06:04:33.287Z,101099.61
2022-10-15T06:05:34.452Z,101107.26
2022-10-15T06:06:36.517Z,101107.20
2022-10-15T06:07:38.598Z,101107.16
2022-10-15T06:08:40.738Z,101114.06
2022-10-15T06:09:42.651Z,101107.77
2022-10-15T06:10:45.053Z,101105.02
2022-10-15T06:11:46.977Z,101104.70
2022-10-15T06:12:50.394Z,101103.59
2022-10-15T06:13:52.958Z,101101.63
2022-10-15T06:14:55.312Z,101093.44
2022-10-15T06:15:57.921Z,101104.45
2022-10-15T06:16:59.908Z,101100.67
2022-10-15T06:18:01.828Z,101101.29
2022-10-15T06:19:03.715Z,101097.46
2022-10-15T06:20:06.728Z,101096.85
2022-10-15T06:21:10.744Z,101094.78
2022-10-15T06:22:12.658Z,101095.37
2022-10-15T06:23:14.594Z,101096.88
2022-10-15T06:24:16.477Z,101094.98
2022-10-15T06:25:18.378Z,101103.54
2022-10-15T06:26:20.389Z,101100.70
2022-10-15T06:27:22.769Z,101100.47
2022-10-15T06:28:25.310Z,101097.42
2022-10-15T06:29:27.367Z,101099.64
2022-10-15T06:30:29.360Z,101093.77
2022-10-15T06:31:31.763Z,101100.20
2022-10-15T06:32:33.765Z,101092.27
2022-10-15T06:33:36.019Z,101091.14
2022-10-15T06:34:37.935Z,101096.79
2022-10-15T06:35:39.885Z,101100.98
2022-10-15T06:36:41.996Z,101096.00
2022-10-15T06:37:44.264Z,101101.09
2022-10-15T06:38:47.097Z,101100.98
2022-10-15T06:39:49.860Z,101104.34
2022-10-15T06:40:52.150Z,101114.64
2022-10-15T06:41:54.146Z,101115.24
2022-10-15T06:43:05.601Z,101108.91
2022-10-15T06:44:07.486Z,101114.48
2022-10-15T06:45:10.887Z,101113.34
2022-10-15T06:46:13.268Z,101115.83
2022-10-15T06:47:15.566Z,101111.34
2022-10-15T06:48:18.152Z,101117.16
2022-10-15T06:49:20.044Z,101110.33
2022-10-15T06:50:22.034Z,101112.52
2022-10-15T06:51:23.942Z,101114.09
2022-10-15T06:52:28.287Z,101115.77
2022-10-15T06:53:30.670Z,101117.16
2022-10-15T06:54:32.592Z,101115.10
2022-10-15T06:55:35.337Z,101118.08
2022-10-15T06:56:37.364Z,101114.57
2022-10-15T06:57:39.333Z,101119.91
2022-10-15T06:58:42.322Z,101109.69
2022-10-15T06:59:44.331Z,101118.25
2022-10-15T07:00:46.413Z,101105.54
2022-10-15T07:01:48.288Z,101106.42
2022-10-15T07:02:50.926Z,101111.28
2022-10-15T07:03:52.983Z,101114.64
2022-10-15T07:04:54.919Z,101113.81
2022-10-15T07:06:05.558Z,101111.66
2022-10-15T07:07:07.520Z,101110.94
2022-10-15T07:08:11.594Z,101119.33
2022-10-15T07:09:14.152Z,101118.09
2022-10-15T07:10:16.799Z,101124.81
2022-10-15T07:11:19.275Z,101125.63
2022-10-15T07:12:21.823Z,101121.13
2022-10-15T07:13:24.301Z,101122.23
2022-10-15T07:14:26.213Z,101121.64
2022-10-15T07:15:28.841Z,101118.53
2022-10-15T07:16:30.946Z,101120.78
2022-10-15T07:17:32.839Z,101122.16
2022-10-15T07:18:35.538Z,101119.16
2022-10-15T07:19:37.503Z,101120.52
2022-10-15T07:20:39.504Z,101119.25
2022-10-15T07:21:41.705Z,101119.31
2022-10-15T07:22:44.663Z,101112.77
2022-10-15T07:23:46.586Z,101116.02
2022-10-15T07:24:48.459Z,101112.16
2022-10-15T07:25:50.351Z,101115.88
2022-10-15T07:26:52.463Z,101113.62
2022-10-15T07:27:55.619Z,101119.38
2022-10-15T07:28:57.823Z,101108.37
2022-10-15T07:30:00.140Z,101107.86
2022-10-15T07:31:04.800Z,101111.06
2022-10-15T07:32:06.765Z,101113.41
2022-10-15T07:33:08.868Z,101121.02
2022-10-15T07:34:10.745Z,101120.95
2022-10-15T07:35:12.965Z,101119.25
2022-10-15T07:36:15.449Z,101121.13
2022-10-15T07:37:17.346Z,101113.36
2022-10-15T07:38:19.281Z,101124.83
2022-10-15T07:39:21.272Z,101123.47
2022-10-15T07:40:23.292Z,101120.03
2022-10-15T07:41:25.184Z,101119.55
2022-10-15T07:42:27.556Z,101114.66
2022-10-15T07:43:29.544Z,101128.98
2022-10-15T07:44:31.844Z,101117.59
2022-10-15T07:45:38.488Z,101122.31
2022-10-15T07:46:41.726Z,101115.02
2022-10-15T07:47:43.691Z,101120.84
2022-10-15T07:48:45.562Z,101117.00
2022-10-15T07:49:47.751Z,101130.04
2022-10-15T07:50:57.620Z,101126.09
2022-10-15T07:51:59.563Z,101130.31
2022-10-15T07:53:01.458Z,101120.72
2022-10-15T07:54:04.177Z,101124.25
2022-10-15T07:55:07.508Z,101121.95
2022-10-15T07:56:11.941Z,101123.91
2022-10-15T07:57:13.913Z,101123.44
2022-10-15T07:58:16.820Z,101122.55
2022-10-15T07:59:18.702Z,101127.38
2022-10-15T08:00:20.713Z,101132.86
2022-10-15T08:01:22.853Z,101127.99
2022-10-15T08:02:25.474Z,101126.09
2022-10-15T08:03:28.362Z,101132.21
2022-10-15T08:04:30.455Z,101129.92
2022-10-15T08:05:32.963Z,101129.92
2022-10-15T08:06:35.348Z,101125.21
2022-10-15T08:07:37.226Z,101126.70
2022-10-15T08:08:39.093Z,101127.41
2022-10-15T08:09:41.018Z,101128.04
2022-10-15T08:10:43.045Z,101121.91
2022-10-15T08:11:45.061Z,101130.38
2022-10-15T08:12:47.114Z,101124.48
2022-10-15T08:13:49.094Z,101131.82
2022-10-15T08:14:50.989Z,101126.14
2022-10-15T08:15:56.293Z,101129.58
2022-10-15T08:16:57.035Z,101117.58
2022-10-15T08:17:59.248Z,101120.61
2022-10-15T08:19:01.259Z,101116.07
2022-10-15T08:20:04.516Z,101124.48
2022-10-15T08:21:07.108Z,101122.60
2022-10-15T08:22:09.014Z,101128.06
2022-10-15T08:23:15.871Z,101119.26
2022-10-15T08:24:17.947Z,101118.73
2022-10-15T08:25:20.033Z,101118.05
2022-10-15T08:26:22.288Z,101129.80
2022-10-15T08:27:24.603Z,101126.94
2022-10-15T08:28:27.827Z,101126.22
2022-10-15T08:29:29.920Z,101126.22
2022-10-15T08:30:31.907Z,101122.45
2022-10-15T08:31:33.796Z,101126.06
2022-10-15T08:32:35.656Z,101123.48
2022-10-15T08:33:37.772Z,101118.39
2022-10-15T08:34:39.701Z,101124.48
2022-10-15T08:35:42.885Z,101119.61
2022-10-15T08:36:44.975Z,101110.30
2022-10-15T08:37:47.005Z,101127.58
2022-10-15T08:38:48.975Z,101119.31
2022-10-15T08:39:50.852Z,101123.07
2022-10-15T08:40:58.778Z,101122.41
2022-10-15T08:42:13.514Z,101124.92
2022-10-15T08:43:31.417Z,101122.34
2022-10-15T08:44:43.279Z,101123.65
2022-10-15T08:45:46.893Z,101118.59
2022-10-15T08:46:55.977Z,101127.38
2022-10-15T08:48:07.747Z,101124.57
2022-10-15T08:50:29.430Z,101120.20
2022-10-15T08:51:35.245Z,101122.05
2022-10-15T08:52:49.669Z,101128.30
2022-10-15T08:53:58.528Z,101127.43
2022-10-15T08:55:01.670Z,101116.73
2022-10-15T08:56:07.712Z,101118.39
2022-10-15T08:57:19.264Z,101124.48
2022-10-15T08:58:30.870Z,101119.33
2022-10-15T09:00:01.202Z,101116.17
2022-10-15T09:01:06.882Z,101114.85
2022-10-15T09:02:18.730Z,101118.25
2022-10-15T09:03:53.840Z,101116.52
2022-10-15T09:05:11.811Z,101119.66
2022-10-15T09:06:35.603Z,101120.02
2022-10-15T09:07:54.542Z,101113.08
2022-10-15T09:09:15.982Z,101109.24
2022-10-15T09:10:24.806Z,101104.81
2022-10-15T09:11:48.634Z,101115.05
2022-10-15T09:12:57.489Z,101107.95
2022-10-15T09:14:00.019Z,101109.66
2022-10-15T09:15:04.717Z,101107.66
2022-10-15T09:16:22.877Z,101103.48
2022-10-15T09:17:28.591Z,101115.66
2022-10-15T09:18:33.530Z,101111.45
2022-10-15T09:19:37.230Z,101114.82
2022-10-15T09:20:39.636Z,101105.38
2022-10-15T09:21:42.431Z,101104.89
2022-10-15T09:22:47.224Z,101115.30
2022-10-15T09:23:49.384Z,101112.23
2022-10-15T09:24:52.171Z,101112.53
2022-10-15T09:26:15.839Z,101115.77
2022-10-15T09:27:35.636Z,101115.92
2022-10-15T09:28:56.020Z,101110.86
2022-10-15T09:30:02.002Z,101123.63
2022-10-15T09:31:06.694Z,101112.38
2022-10-15T09:32:27.608Z,101114.05
2022-10-15T09:33:48.775Z,101118.28
2022-10-15T09:35:00.745Z,101112.02
2022-10-15T09:36:31.119Z,101114.67
2022-10-15T09:38:05.852Z,101106.70
2022-10-15T09:39:40.440Z,101115.37
2022-10-15T09:40:55.777Z,101104.41
2022-10-15T09:42:01.946Z,101106.70
2022-10-15T09:43:06.063Z,101109.98
2022-10-15T09:44:12.663Z,101113.67
2022-10-15T09:45:16.460Z,101105.92
2022-10-15T09:46:19.874Z,101109.58
2022-10-15T09:47:25.307Z,101106.62
2022-10-15T09:48:29.958Z,101102.34
2022-10-15T09:49:36.345Z,101107.66
2022-10-15T09:51:01.701Z,101103.74
2022-10-15T09:52:26.228Z,101084.66
2022-10-15T09:53:49.157Z,101098.34
2022-10-15T09:54:58.084Z,101103.06
2022-10-15T09:56:18.711Z,101112.27
2022-10-15T09:57:22.982Z,101106.09
2022-10-15T09:58:31.888Z,101104.44
2022-10-15T09:59:33.846Z,101100.93
2022-10-15T10:00:55.249Z,101109.68
2022-10-15T10:02:16.361Z,101103.28
2022-10-15T10:03:18.645Z,101107.49
2022-10-15T10:04:20.709Z,101097.66
2022-10-15T10:05:31.775Z,101099.86
2022-10-15T10:06:46.587Z,101097.97
2022-10-15T10:07:48.678Z,101088.27
2022-10-15T10:08:59.120Z,101094.86
2022-10-15T10:10:22.857Z,101105.49
2022-10-15T10:11:26.547Z,101104.53
2022-10-15T10:12:32.032Z,101095.16
2022-10-15T10:13:37.779Z,101103.53
2022-10-15T10:14:46.495Z,101102.68
2022-10-15T10:15:56.074Z,101102.49
2022-10-15T10:17:14.790Z,101102.25
2022-10-15T10:18:22.571Z,101100.25
2022-10-15T10:19:24.913Z,101096.39
2022-10-15T10:20:29.914Z,101100.41
2022-10-15T10:21:35.316Z,101090.31
2022-10-15T10:22:51.984Z,101103.83
2022-10-15T10:23:53.959Z,101094.86
2022-10-15T10:24:56.035Z,101095.40
2022-10-15T10:25:58.904Z,101104.84
2022-10-15T10:27:02.133Z,101101.17
2022-10-15T10:28:13.878Z,101095.55
2022-10-15T10:29:33.714Z,101101.72
2022-10-15T10:30:26.254Z,101099.37
2022-10-15T10:31:31.620Z,101107.49
2022-10-15T10:32:34.542Z,101092.34
2022-10-15T10:33:43.122Z,101099.84
2022-10-15T10:34:50.077Z,101094.44
2022-10-15T10:35:51.264Z,101090.63
2022-10-15T10:36:54.391Z,101097.59
2022-10-15T10:37:56.881Z,101096.79
2022-10-15T10:39:14.750Z,101096.09
2022-10-15T10:41:55.139Z,101099.98
2022-10-15T10:43:17.886Z,101102.34
2022-10-15T10:44:22.996Z,101093.05
2022-10-15T10:46:26.924Z,101092.13
2022-10-15T10:47:32.602Z,101090.55
2022-10-15T10:48:44.417Z,101088.81
2022-10-15T10:49:53.073Z,101094.13
2022-10-15T10:51:12.892Z,101088.42
2022-10-15T10:52:24.736Z,101089.84
2022-10-15T10:53:26.703Z,101089.12
2022-10-15T10:54:29.966Z,101082.17
2022-10-15T10:55:36.120Z,101085.84
2022-10-15T10:56:41.240Z,101087.42
2022-10-15T10:57:52.478Z,101087.34
2022-10-15T10:59:03.840Z,101084.53
2022-10-15T11:00:08.190Z,101089.84
2022-10-15T11:01:12.892Z,101090.00
2022-10-15T11:02:15.131Z,101084.92
2022-10-15T11:03:32.797Z,101084.92
2022-10-15T11:04:37.639Z,101082.80
2022-10-15T11:05:40.946Z,101087.96
2022-10-15T11:07:08.009Z,101089.05
2022-10-15T11:08:47.637Z,101065.27
2022-10-15T11:09:58.137Z,101084.76
2022-10-15T11:11:23.869Z,101084.30
2022-10-15T11:12:35.306Z,101081.72
2022-10-15T11:14:13.317Z,101078.72
2022-10-15T11:15:51.445Z,101081.22
2022-10-15T11:17:00.046Z,101037.06
2022-10-15T11:18:12.168Z,101069.19
2022-10-15T11:19:50.432Z,101081.45
2022-10-15T11:20:49.782Z,101076.21
2022-10-15T11:21:57.646Z,101075.44
2022-10-15T11:23:29.777Z,101007.13
2022-10-15T11:25:06.038Z,101072.62
2022-10-15T11:26:16.302Z,101078.40
2022-10-15T11:27:25.358Z,101014.06
2022-10-15T11:28:47.960Z,101075.27
2022-10-15T11:30:15.154Z,101073.96
2022-10-15T11:32:03.010Z,101083.41
2022-10-15T11:33:22.753Z,101084.84
2022-10-15T11:34:43.698Z,101073.88
2022-10-15T11:36:07.093Z,101071.03
2022-10-15T11:37:26.045Z,101071.53
2022-10-15T11:38:31.770Z,101074.51
2022-10-15T11:39:55.793Z,101077.33
2022-10-15T11:41:10.634Z,101073.73
2022-10-15T11:42:19.345Z,101073.02
2022-10-15T11:43:27.796Z,101069.19
2022-10-15T11:45:05.682Z,101075.52
2022-10-15T11:46:26.880Z,101077.17
2022-10-15T11:47:41.708Z,101066.45
2022-10-15T11:49:05.558Z,101066.30
2022-10-15T11:50:32.645Z,101071.55
2022-10-15T11:51:49.925Z,101075.28
2022-10-15T11:52:55.931Z,101076.86
2022-10-15T11:55:40.552Z,101074.97
2022-10-15T11:56:49.461Z,101075.52
2022-10-15T11:57:55.394Z,101075.75
2022-10-15T11:59:19.137Z,101073.89
2022-10-15T12:00:31.251Z,101062.88
2022-10-15T12:01:49.363Z,101066.61
2022-10-15T12:02:54.169Z,101015.56
2022-10-15T12:04:00.059Z,101063.41
2022-10-15T12:05:11.639Z,101058.56
2022-10-15T12:06:17.417Z,101064.73
2022-10-15T12:07:25.718Z,101061.22
2022-10-15T12:08:31.443Z,101060.52
2022-10-15T12:09:39.314Z,101054.25
2022-10-15T12:10:54.182Z,101055.21
2022-10-15T12:12:28.504Z,101055.83
2022-10-15T12:13:40.372Z,101060.98
2022-10-15T12:15:09.236Z,101061.84
2022-10-15T12:16:15.237Z,101057.05
2022-10-15T12:17:37.665Z,101056.21
2022-10-15T12:18:58.515Z,101063.26
2022-10-15T12:20:09.973Z,101061.60
2022-10-15T12:21:33.910Z,101064.03
2022-10-15T12:22:39.331Z,101061.68
2022-10-15T12:23:41.804Z,101062.15
2022-10-15T12:24:50.353Z,101061.06
2022-10-15T12:25:52.652Z,101059.41
2022-10-15T12:26:55.775Z,101064.88
2022-10-15T12:28:16.932Z,101059.02
2022-10-15T12:29:26.075Z,101059.64
2022-10-15T12:30:36.530Z,101062.38
2022-10-15T12:31:51.300Z,101065.61
2022-10-15T12:32:54.394Z,101067.47
2022-10-15T12:33:57.195Z,101061.38
2022-10-15T12:35:02.133Z,101064.19
2022-10-15T12:36:26.112Z,101062.15
2022-10-15T12:37:31.057Z,101066.38
2022-10-15T12:38:35.803Z,101057.55
2022-10-15T12:39:51.761Z,101062.64
2022-10-15T12:40:46.629Z,101060.60
2022-10-15T12:41:50.281Z,100986.78
2022-10-15T12:43:04.364Z,101054.81
2022-10-15T12:44:22.214Z,101055.59
2022-10-15T12:45:27.796Z,101057.33
2022-10-15T12:46:39.047Z,101056.59
2022-10-15T12:48:07.887Z,101056.90
2022-10-15T12:49:34.740Z,101061.21